^^
Meteo Knjazevac Station Historical Data
Daily Summary for September 18, 2021 Units:  Metric    English   Both
Daily Weekly Monthly Yearly Custom
  High: Low: Average:
Temperature: 18.7 °C 16.2 °C 17.2 °C
Dew Point: 17 °C 14.1 °C 15.9 °C
Humidity: 95% 86% 92%
Wind Speed: 11.3km/h 0km/h 3.7km/h
Wind Gust: 22.5km/h - -
Wind- - SW
Pressure: 1016.8 hPa 1014.4 hPa -
Precipitation: 0.25 mm    
Historical Graphs
 
 
Tabular Data for September 18, 2021
Time Temperature Dew Point Pressure Wind Wind Speed Wind Gust Humidity Rainfall Rate (Hourly) solar Conditions
00:00 18.7 °C 17 °C 1014.8 hPa SE 1.6 km/h 11.3 km/h 90% 0 mm 0 W/m2
00:10 18.5 °C 16.7 °C 1014.4 hPa South 1.6 km/h 6.4 km/h 89% 0 mm 0 W/m2
00:20 18.3 °C 16.6 °C 1014.4 hPa SSE 1.6 km/h 4.8 km/h 90% 0 mm 0 W/m2
00:30 18.2 °C 16.6 °C 1014.4 hPa Calm   4.8 km/h 90% 0 mm 0 W/m2
00:40 18 °C 16.5 °C 1014.4 hPa Calm   3.2 km/h 91% 0 mm 0 W/m2
00:50 17.9 °C 16.4 °C 1014.4 hPa WNW 1.6 km/h 4.8 km/h 91% 0 mm 0 W/m2
01:00 17.8 °C 16.3 °C 1014.4 hPa WNW 1.6 km/h 4.8 km/h 91% 0 mm 0 W/m2
01:10 17.8 °C 16.3 °C 1014.4 hPa West 3.2 km/h 4.8 km/h 91% 0 mm 0 W/m2
01:20 17.7 °C 16.2 °C 1014.4 hPa SW 1.6 km/h 4.8 km/h 91% 0 mm 0 W/m2
01:30 17.6 °C 16.1 °C 1014.4 hPa NW 1.6 km/h 3.2 km/h 91% 0 mm 0 W/m2
01:40 17.5 °C 16.3 °C 1014.4 hPa Calm   3.2 km/h 93% 0 mm 0 W/m2
01:50 17.4 °C 16.3 °C 1014.4 hPa South 1.6 km/h 4.8 km/h 93% 0 mm 0 W/m2
02:00 17.4 °C 16.3 °C 1014.8 hPa Calm   4.8 km/h 93% 0 mm 0 W/m2
02:10 17.4 °C 16.3 °C 1014.8 hPa Calm   4.8 km/h 93% 0 mm 0 W/m2
02:20 17.4 °C 16.4 °C 1014.8 hPa NNW 1.6 km/h 3.2 km/h 94% 0 mm 0 W/m2
02:30 17.3 °C 16.2 °C 1014.8 hPa West 1.6 km/h 4.8 km/h 93% 0 mm 0 W/m2
02:40 17.3 °C 16.3 °C 1014.8 hPa Calm   4.8 km/h 94% 0 mm 0 W/m2
02:50 17.3 °C 16.3 °C 1014.8 hPa ENE 1.6 km/h 6.4 km/h 94% 0 mm 0 W/m2
03:00 17.3 °C 16.3 °C 1014.8 hPa ESE 1.6 km/h 3.2 km/h 94% 0 mm 0 W/m2
03:10 17.4 °C 16.4 °C 1014.8 hPa Calm   3.2 km/h 94% 0 mm 0 W/m2
03:20 17.4 °C 16.4 °C 1014.8 hPa SW 1.6 km/h 4.8 km/h 94% 0 mm 0 W/m2
03:30 17.3 °C 16.3 °C 1014.8 hPa Calm   4.8 km/h 94% 0 mm 0 W/m2
03:40 17.4 °C 16.4 °C 1014.8 hPa Calm   6.4 km/h 94% 0 mm 0 W/m2
03:50 17.5 °C 16.7 °C 1014.8 hPa North 3.2 km/h 6.4 km/h 95% 0 mm 0 W/m2
04:00 17.7 °C 16.7 °C 1014.8 hPa North 1.6 km/h 4.8 km/h 94% 0 mm 0 W/m2
04:10 17.7 °C 16.7 °C 1014.8 hPa West 4.8 km/h 11.3 km/h 94% 0 mm 0 W/m2
04:20 17.7 °C 16.7 °C 1015.1 hPa WSW 8 km/h 12.9 km/h 94% 0 mm 0 W/m2
04:30 17.6 °C 16.4 °C 1014.8 hPa WSW 1.6 km/h 12.9 km/h 93% 0 mm 0 W/m2
04:40 17.6 °C 16.4 °C 1014.8 hPa WSW 3.2 km/h 11.3 km/h 93% 0 mm 0 W/m2
04:50 17.5 °C 16.5 °C 1014.8 hPa WSW 4.8 km/h 16.1 km/h 94% 0.25 mm 0 W/m2
05:00 17.4 °C 16.4 °C 1014.8 hPa West 3.2 km/h 12.9 km/h 94% 0 mm 0 W/m2
05:10 17.3 °C 16.3 °C 1015.1 hPa West 3.2 km/h 8 km/h 94% 0 mm 0 W/m2
05:20 17.2 °C 16.1 °C 1015.1 hPa West 8 km/h 14.5 km/h 93% 0 mm 0 W/m2
05:30 17.1 °C 15.4 °C 1015.1 hPa West 11.3 km/h 20.9 km/h 90% 0 mm 0 W/m2
05:40 17 °C 15.3 °C 1015.1 hPa West 4.8 km/h 22.5 km/h 90% 0 mm 0 W/m2
05:50 16.9 °C 15.2 °C 1015.5 hPa West 8 km/h 16.1 km/h 90% 0 mm 0 W/m2
06:00 16.9 °C 15.1 °C 1015.5 hPa WSW 4.8 km/h 12.9 km/h 89% 0 mm 0 W/m2
06:10 16.8 °C 15 °C 1015.8 hPa WSW 8 km/h 11.3 km/h 89% 0 mm 0 W/m2
06:20 16.8 °C 15 °C 1015.8 hPa West 4.8 km/h 12.9 km/h 89% 0 mm 1 W/m2
06:30 16.7 °C 14.9 °C 1015.8 hPa West 9.7 km/h 14.5 km/h 89% 0 mm 3 W/m2
06:40 16.6 °C 14.9 °C 1015.8 hPa WSW 8 km/h 11.3 km/h 90% 0 mm 6 W/m2
06:50 16.6 °C 15.1 °C 1015.8 hPa SW 4.8 km/h 12.9 km/h 91% 0 mm 10 W/m2
07:00 16.5 °C 15 °C 1016.1 hPa WSW 8 km/h 12.9 km/h 91% 0 mm 17 W/m2
07:10 16.4 °C 14.9 °C 1016.1 hPa SW 8 km/h 12.9 km/h 91% 0 mm 15 W/m2
07:20 16.4 °C 14.9 °C 1016.1 hPa WSW 9.7 km/h 12.9 km/h 91% 0 mm 15 W/m2
07:30 16.3 °C 14.8 °C 1016.1 hPa WSW 4.8 km/h 12.9 km/h 91% 0 mm 35 W/m2
07:40 16.3 °C 14.8 °C 1016.1 hPa WSW 3.2 km/h 14.5 km/h 91% 0 mm 30 W/m2
07:50 16.2 °C 14.6 °C 1016.5 hPa SW 4.8 km/h 8 km/h 90% 0 mm 53 W/m2
08:00 16.3 °C 14.8 °C 1016.5 hPa SW 3.2 km/h 9.7 km/h 91% 0 mm 101 W/m2
08:10 16.4 °C 14.6 °C 1016.5 hPa WSW 4.8 km/h 12.9 km/h 89% 0 mm 97 W/m2
08:20 16.5 °C 14.7 °C 1016.8 hPa SW 8 km/h 9.7 km/h 89% 0 mm 72 W/m2
08:30 16.4 °C 14.1 °C 1016.8 hPa SW 11.3 km/h 20.9 km/h 86% 0 mm 32 W/m2
Knjazevac, Serbia
Compliments of Weather Underground - 2 mb